createdAt,value
2017-03-23T00:00:52.228Z,0
2017-03-23T00:02:04.447Z,0
2017-03-23T00:03:16.687Z,0
2017-03-23T00:04:29.213Z,0
2017-03-23T00:05:41.726Z,0
2017-03-23T00:06:53.948Z,0
2017-03-23T00:08:06.496Z,0
2017-03-23T00:09:19.013Z,0
2017-03-23T00:10:31.237Z,0
2017-03-23T00:11:43.155Z,0
2017-03-23T00:12:55.385Z,0
2017-03-23T00:14:07.580Z,0
2017-03-23T00:15:19.779Z,0
2017-03-23T00:16:32.343Z,0
2017-03-23T00:17:44.271Z,0
2017-03-23T00:18:56.814Z,0
2017-03-23T00:20:09.360Z,0
2017-03-23T00:21:21.880Z,0
2017-03-23T00:22:34.106Z,0
2017-03-23T00:23:46.014Z,0
2017-03-23T00:24:57.921Z,0
2017-03-23T00:26:10.138Z,0
2017-03-23T00:27:21.752Z,0
2017-03-23T00:28:33.955Z,0
2017-03-23T00:29:45.883Z,0
2017-03-23T00:30:58.397Z,0
2017-03-23T00:32:10.626Z,0
2017-03-23T00:33:23.157Z,0
2017-03-23T00:34:35.686Z,0
2017-03-23T00:35:48.223Z,0
2017-03-23T00:37:00.149Z,0
2017-03-23T00:38:12.377Z,0
2017-03-23T00:39:24.618Z,0
2017-03-23T00:40:37.165Z,0
2017-03-23T00:41:49.679Z,0
2017-03-23T00:43:01.885Z,0
2017-03-23T00:44:14.428Z,0
2017-03-23T00:45:26.649Z,0
2017-03-23T00:46:39.173Z,0
2017-03-23T00:47:51.094Z,0
2017-03-23T00:49:03.614Z,0
2017-03-23T00:50:16.111Z,0
2017-03-23T00:51:28.628Z,0
2017-03-23T00:52:40.870Z,0
2017-03-23T00:53:53.074Z,0
2017-03-23T00:55:05.312Z,0
2017-03-23T00:56:17.830Z,0
2017-03-23T00:57:30.061Z,0
2017-03-23T00:58:42.298Z,0
2017-03-23T00:59:54.566Z,0
2017-03-23T01:01:07.116Z,0
2017-03-23T01:02:19.641Z,0
2017-03-23T01:03:32.187Z,0
2017-03-23T01:04:44.383Z,0
2017-03-23T01:05:56.584Z,0
2017-03-23T01:07:09.051Z,0
2017-03-23T01:08:21.567Z,0
2017-03-23T01:09:33.767Z,0
2017-03-23T01:10:46.290Z,0
2017-03-23T01:11:58.188Z,0
2017-03-23T01:13:10.400Z,0
2017-03-23T01:14:22.945Z,0
2017-03-23T01:15:35.189Z,0
2017-03-23T01:16:47.396Z,0
2017-03-23T01:17:59.643Z,0
2017-03-23T01:19:11.879Z,0
2017-03-23T01:20:24.398Z,0
2017-03-23T01:21:36.930Z,0
2017-03-23T01:22:49.446Z,0
2017-03-23T01:24:01.667Z,0
2017-03-23T01:25:13.881Z,0
2017-03-23T01:26:26.385Z,0
2017-03-23T01:27:38.898Z,0
2017-03-23T01:28:51.119Z,0
2017-03-23T01:30:03.656Z,0
2017-03-23T01:31:16.164Z,0
2017-03-23T01:32:28.689Z,0
2017-03-23T01:33:41.238Z,0
2017-03-23T01:34:53.476Z,0
2017-03-23T01:36:05.978Z,0
2017-03-23T01:37:18.503Z,0
2017-03-23T01:38:30.724Z,0
2017-03-23T01:39:43.535Z,0
2017-03-23T01:40:55.736Z,0
2017-03-23T01:42:07.957Z,0
2017-03-23T01:43:20.182Z,0
2017-03-23T01:44:32.716Z,0
2017-03-23T01:45:44.949Z,0
2017-03-23T01:46:56.558Z,0
2017-03-23T01:48:09.112Z,0
2017-03-23T01:49:21.632Z,0
2017-03-23T01:50:34.178Z,0
2017-03-23T01:51:46.398Z,0
2017-03-23T01:52:58.287Z,0
2017-03-23T01:54:10.820Z,0
2017-03-23T01:55:23.355Z,0
2017-03-23T01:56:35.282Z,0
2017-03-23T01:57:47.186Z,0
2017-03-23T01:58:59.432Z,0
2017-03-23T02:00:11.973Z,0
2017-03-23T02:01:24.516Z,0
2017-03-23T02:02:37.030Z,0
2017-03-23T02:03:49.579Z,0
2017-03-23T02:05:01.784Z,0
2017-03-23T02:06:13.418Z,0
2017-03-23T02:07:25.949Z,0
2017-03-23T02:08:37.884Z,0
2017-03-23T02:09:50.417Z,0
2017-03-23T02:11:02.651Z,0
2017-03-23T02:12:15.182Z,0
2017-03-23T02:13:27.426Z,0
2017-03-23T02:14:39.922Z,0
2017-03-23T02:15:52.116Z,0
2017-03-23T02:17:04.332Z,0
2017-03-23T02:18:16.852Z,0
2017-03-23T02:19:29.400Z,0
2017-03-23T02:20:41.333Z,0
2017-03-23T02:21:53.863Z,0
2017-03-23T02:23:05.814Z,0
2017-03-23T02:24:18.063Z,0
2017-03-23T02:25:30.314Z,0
2017-03-23T02:26:42.851Z,0
2017-03-23T02:27:54.761Z,0
2017-03-23T02:29:07.290Z,0
2017-03-23T02:30:19.825Z,0
2017-03-23T02:31:32.340Z,0
2017-03-23T02:32:43.959Z,0
2017-03-23T02:33:56.165Z,0
2017-03-23T02:35:08.398Z,0
2017-03-23T02:36:20.652Z,0
2017-03-23T02:37:32.587Z,0
2017-03-23T02:38:45.097Z,0
2017-03-23T02:39:57.357Z,0
2017-03-23T02:41:09.582Z,0
2017-03-23T02:42:22.084Z,0
2017-03-23T02:43:34.302Z,0
2017-03-23T02:44:46.545Z,0
2017-03-23T02:45:58.741Z,0
2017-03-23T02:47:10.687Z,0
2017-03-23T02:48:23.232Z,0
2017-03-23T02:49:35.746Z,0
2017-03-23T02:50:48.277Z,0
2017-03-23T02:52:00.799Z,0
2017-03-23T02:53:12.766Z,0
2017-03-23T02:54:25.303Z,0
2017-03-23T02:55:37.833Z,0
2017-03-23T02:56:50.332Z,0
2017-03-23T02:58:02.570Z,0
2017-03-23T02:59:14.798Z,0
2017-03-23T03:00:27.345Z,0
2017-03-23T03:01:39.887Z,0
2017-03-23T03:02:52.101Z,0
2017-03-23T03:04:04.033Z,0
2017-03-23T03:05:16.580Z,0
2017-03-23T03:06:28.830Z,0
2017-03-23T03:07:41.073Z,0
2017-03-23T03:08:53.605Z,0
2017-03-23T03:10:05.537Z,0
2017-03-23T03:11:17.776Z,0
2017-03-23T03:12:30.293Z,0
2017-03-23T03:13:42.522Z,0
2017-03-23T03:14:54.412Z,0
2017-03-23T03:16:06.642Z,0
2017-03-23T03:17:19.185Z,0
2017-03-23T03:18:31.408Z,0
2017-03-23T03:19:43.626Z,0
2017-03-23T03:20:55.225Z,0
2017-03-23T03:22:07.471Z,0
2017-03-23T03:23:19.067Z,0
2017-03-23T03:24:31.585Z,0
2017-03-23T03:25:43.183Z,0
2017-03-23T03:26:55.707Z,0
2017-03-23T03:28:07.951Z,0
2017-03-23T03:29:20.193Z,0
2017-03-23T03:30:32.711Z,0
2017-03-23T03:31:44.611Z,0
2017-03-23T03:32:56.813Z,0
2017-03-23T03:34:09.334Z,0
2017-03-23T03:35:21.852Z,0
2017-03-23T03:36:34.095Z,0
2017-03-23T03:37:46.661Z,0
2017-03-23T03:38:59.186Z,0
2017-03-23T03:40:11.402Z,0
2017-03-23T03:41:23.631Z,0
2017-03-23T03:42:36.182Z,0
2017-03-23T03:43:48.697Z,0
2017-03-23T03:45:00.882Z,0
2017-03-23T03:46:13.433Z,0
2017-03-23T03:47:25.983Z,0
2017-03-23T03:48:38.521Z,0
2017-03-23T03:49:51.053Z,0
2017-03-23T03:51:03.586Z,0
2017-03-23T03:52:15.544Z,0
2017-03-23T03:53:28.062Z,0
2017-03-23T03:54:40.583Z,0
2017-03-23T03:55:52.508Z,0
2017-03-23T03:57:04.750Z,0
2017-03-23T03:58:16.649Z,0
2017-03-23T03:59:28.870Z,0
2017-03-23T04:00:41.114Z,0
2017-03-23T04:01:53.690Z,0
2017-03-23T04:03:05.913Z,0
2017-03-23T04:04:18.125Z,0
2017-03-23T04:05:30.668Z,0
2017-03-23T04:06:42.593Z,0
2017-03-23T04:07:54.831Z,0
2017-03-23T04:09:07.334Z,0
2017-03-23T04:10:19.530Z,0
2017-03-23T04:11:32.305Z,0
2017-03-23T04:12:43.950Z,0
2017-03-23T04:13:56.193Z,0
2017-03-23T04:15:08.414Z,0
2017-03-23T04:16:20.613Z,0
2017-03-23T04:17:33.156Z,0
2017-03-23T04:18:45.053Z,0
2017-03-23T04:19:57.274Z,0
2017-03-23T04:21:09.793Z,0
2017-03-23T04:22:21.991Z,0
2017-03-23T04:23:34.188Z,0
2017-03-23T04:24:46.457Z,0
2017-03-23T04:25:58.681Z,0
2017-03-23T04:27:11.203Z,0
2017-03-23T04:28:23.443Z,0
2017-03-23T04:29:35.365Z,0
2017-03-23T04:30:47.581Z,0
2017-03-23T04:31:59.510Z,0
2017-03-23T04:33:12.278Z,4
2017-03-23T04:34:24.503Z,0
2017-03-23T04:35:37.041Z,4
2017-03-23T04:36:49.240Z,4
2017-03-23T04:38:01.137Z,4
2017-03-23T04:39:13.666Z,8
2017-03-23T04:40:25.887Z,8
2017-03-23T04:41:38.442Z,8
2017-03-23T04:42:50.672Z,12
2017-03-23T04:44:02.241Z,16
2017-03-23T04:45:14.519Z,16
2017-03-23T04:46:27.030Z,24
2017-03-23T04:47:39.253Z,28
2017-03-23T04:48:51.156Z,32
2017-03-23T04:50:03.701Z,36
2017-03-23T04:51:16.242Z,44
2017-03-23T04:52:28.462Z,52
2017-03-23T04:53:40.983Z,56
2017-03-23T04:54:53.205Z,64
2017-03-23T04:56:05.753Z,76
2017-03-23T04:57:17.971Z,84
2017-03-23T04:58:30.188Z,92
2017-03-23T04:59:42.416Z,108
2017-03-23T05:00:54.951Z,116
2017-03-23T05:02:07.458Z,124
2017-03-23T05:03:19.679Z,136
2017-03-23T05:04:31.927Z,148
2017-03-23T05:05:44.447Z,160
2017-03-23T05:06:56.963Z,176
2017-03-23T05:08:09.168Z,196
2017-03-23T05:09:21.397Z,212
2017-03-23T05:10:33.901Z,228
2017-03-23T05:11:46.105Z,244
2017-03-23T05:12:58.318Z,256
2017-03-23T05:14:10.545Z,268
2017-03-23T05:15:22.784Z,276
2017-03-23T05:16:34.652Z,288
2017-03-23T05:17:46.573Z,316
2017-03-23T05:18:58.818Z,348
2017-03-23T05:20:11.059Z,384
2017-03-23T05:21:23.311Z,420
2017-03-23T05:22:35.814Z,448
2017-03-23T05:23:48.334Z,460
2017-03-23T05:24:59.352Z,464
2017-03-23T05:26:11.283Z,472
2017-03-23T05:27:23.497Z,492
2017-03-23T05:28:35.694Z,516
2017-03-23T05:29:47.610Z,556
2017-03-23T05:30:59.507Z,592
2017-03-23T05:32:12.003Z,632
2017-03-23T05:33:24.543Z,672
2017-03-23T05:34:36.474Z,716
2017-03-23T05:35:48.995Z,760
2017-03-23T05:37:00.940Z,804
2017-03-23T05:38:13.774Z,840
2017-03-23T05:39:26.284Z,868
2017-03-23T05:40:38.496Z,888
2017-03-23T05:41:50.720Z,916
2017-03-23T05:43:02.622Z,944
2017-03-23T05:44:15.112Z,984
2017-03-23T05:45:27.325Z,1028
2017-03-23T05:46:39.882Z,1072
2017-03-23T05:47:52.129Z,1100
2017-03-23T05:49:04.067Z,1148
2017-03-23T05:50:16.586Z,1220
2017-03-23T05:51:29.155Z,1312
2017-03-23T05:52:41.662Z,1424
2017-03-23T05:53:53.885Z,1548
2017-03-23T05:55:06.426Z,1668
2017-03-23T05:56:18.621Z,1760
2017-03-23T05:57:30.867Z,1808
2017-03-23T05:58:43.410Z,1840
2017-03-23T05:59:55.980Z,1884
2017-03-23T06:01:08.507Z,1948
2017-03-23T06:02:20.125Z,2028
2017-03-23T06:03:32.625Z,2144
2017-03-23T06:04:45.160Z,2272
2017-03-23T06:05:57.387Z,2352
2017-03-23T06:07:09.331Z,2364
2017-03-23T06:08:21.850Z,2368
2017-03-23T06:09:34.351Z,2348
2017-03-23T06:10:46.547Z,2292
2017-03-23T06:11:58.468Z,2264
2017-03-23T06:13:11.019Z,2272
2017-03-23T06:14:23.563Z,2328
2017-03-23T06:15:36.109Z,2396
2017-03-23T06:16:48.652Z,2488
2017-03-23T06:18:01.172Z,2532
2017-03-23T06:19:13.695Z,2552
2017-03-23T06:20:25.940Z,2616
2017-03-23T06:21:38.756Z,2724
2017-03-23T06:22:50.674Z,2904
2017-03-23T06:24:03.202Z,3068
2017-03-23T06:25:15.424Z,3196
2017-03-23T06:26:27.962Z,3316
2017-03-23T06:27:40.483Z,3404
2017-03-23T06:28:52.713Z,3428
2017-03-23T06:30:04.359Z,3420
2017-03-23T06:31:16.581Z,3420
2017-03-23T06:32:28.798Z,3492
2017-03-23T06:33:41.366Z,3588
2017-03-23T06:34:53.565Z,3644
2017-03-23T06:36:06.094Z,3640
2017-03-23T06:37:18.038Z,3604
2017-03-23T06:38:30.556Z,3520
2017-03-23T06:39:43.074Z,3360
2017-03-23T06:40:55.322Z,3176
2017-03-23T06:42:07.532Z,3024
2017-03-23T06:43:20.332Z,2940
2017-03-23T06:44:32.535Z,2896
2017-03-23T06:45:45.052Z,2824
2017-03-23T06:46:56.970Z,2704
2017-03-23T06:48:09.197Z,2532
2017-03-23T06:49:21.419Z,2376
2017-03-23T06:50:33.939Z,2268
2017-03-23T06:51:46.454Z,2296
2017-03-23T06:52:58.707Z,2356
2017-03-23T06:54:11.228Z,2416
2017-03-23T06:55:23.504Z,2456
2017-03-23T06:56:36.046Z,2496
2017-03-23T06:57:48.580Z,2540
2017-03-23T06:59:00.514Z,2604
2017-03-23T07:00:13.058Z,2712
2017-03-23T07:01:25.581Z,2776
2017-03-23T07:02:37.799Z,2836
2017-03-23T07:03:49.397Z,2848
2017-03-23T07:05:01.942Z,2864
2017-03-23T07:06:14.462Z,2900
2017-03-23T07:07:27.009Z,2984
2017-03-23T07:08:39.569Z,3096
2017-03-23T07:09:52.117Z,3260
2017-03-23T07:11:04.645Z,3452
2017-03-23T07:12:16.860Z,3640
2017-03-23T07:13:28.801Z,3784
2017-03-23T07:14:41.326Z,3928
2017-03-23T07:15:53.826Z,4116
2017-03-23T07:17:06.003Z,4272
2017-03-23T07:18:18.514Z,4332
2017-03-23T07:19:30.732Z,4376
2017-03-23T07:20:43.259Z,4408
2017-03-23T07:21:55.209Z,4480
2017-03-23T07:23:07.731Z,4664
2017-03-23T07:24:20.250Z,4960
2017-03-23T07:25:32.771Z,5376
2017-03-23T07:26:44.642Z,5908
2017-03-23T07:27:56.938Z,6460
2017-03-23T07:29:09.502Z,6852
2017-03-23T07:30:22.082Z,7100
2017-03-23T07:31:34.626Z,7348
2017-03-23T07:32:46.248Z,7608
2017-03-23T07:33:58.811Z,7916
2017-03-23T07:35:11.387Z,8268
2017-03-23T07:36:23.608Z,8672
2017-03-23T07:37:35.553Z,9112
2017-03-23T07:38:47.465Z,9500
2017-03-23T07:39:59.399Z,9740
2017-03-23T07:41:11.640Z,9988
2017-03-23T07:42:23.861Z,10216
2017-03-23T07:43:36.076Z,10388
2017-03-23T07:44:48.396Z,10576
2017-03-23T07:46:00.927Z,10748
2017-03-23T07:47:13.450Z,10892
2017-03-23T07:48:25.641Z,11096
2017-03-23T07:49:37.865Z,11408
2017-03-23T07:50:50.387Z,11544
2017-03-23T07:52:02.333Z,11416
2017-03-23T07:53:14.881Z,11108
2017-03-23T07:54:27.095Z,10620
2017-03-23T07:55:39.620Z,9944
2017-03-23T07:56:52.134Z,9476
2017-03-23T07:58:04.683Z,9240
2017-03-23T07:59:16.878Z,9496
2017-03-23T08:00:29.103Z,10188
2017-03-23T08:01:41.031Z,10780
2017-03-23T08:02:52.963Z,10800
2017-03-23T08:04:05.487Z,10540
2017-03-23T08:05:18.034Z,10356
2017-03-23T08:06:29.651Z,9848
2017-03-23T08:07:41.871Z,9340
2017-03-23T08:08:54.377Z,9104
2017-03-23T08:10:06.868Z,8904
2017-03-23T08:11:19.117Z,8956
2017-03-23T08:12:31.041Z,9124
2017-03-23T08:13:43.559Z,9196
2017-03-23T08:14:55.801Z,9200
2017-03-23T08:16:08.318Z,9348
2017-03-23T08:17:20.217Z,9468
2017-03-23T08:18:32.716Z,9360
2017-03-23T08:19:44.940Z,9224
2017-03-23T08:20:57.455Z,9368
2017-03-23T08:22:09.670Z,9452
2017-03-23T08:23:21.873Z,9284
2017-03-23T08:24:34.135Z,9144
2017-03-23T08:25:46.389Z,9024
2017-03-23T08:26:58.314Z,8868
2017-03-23T08:28:10.832Z,8484
2017-03-23T08:29:23.056Z,8276
2017-03-23T08:30:35.301Z,8232
2017-03-23T08:31:47.821Z,8320
2017-03-23T08:33:00.086Z,8408
2017-03-23T08:34:12.311Z,8352
2017-03-23T08:35:24.537Z,8408
2017-03-23T08:36:37.057Z,8868
2017-03-23T08:37:49.617Z,9516
2017-03-23T08:39:02.144Z,10092
2017-03-23T08:40:14.659Z,10648
2017-03-23T08:41:26.594Z,11460
2017-03-23T08:42:38.836Z,12080
2017-03-23T08:43:51.373Z,12220
2017-03-23T08:45:03.598Z,12012
2017-03-23T08:46:15.848Z,11888
2017-03-23T08:47:28.069Z,11900
2017-03-23T08:48:39.707Z,11948
2017-03-23T08:49:52.254Z,12144
2017-03-23T08:51:04.797Z,12052
2017-03-23T08:52:17.350Z,12012
2017-03-23T08:53:29.867Z,12368
2017-03-23T08:54:42.384Z,13088
2017-03-23T08:55:54.913Z,13652
2017-03-23T08:57:07.433Z,14052
2017-03-23T08:58:19.659Z,14364
2017-03-23T08:59:31.906Z,14888
2017-03-23T09:00:44.451Z,15104
2017-03-23T09:01:56.998Z,14932
2017-03-23T09:03:09.530Z,14304
2017-03-23T09:04:22.068Z,13472
2017-03-23T09:05:34.605Z,12364
2017-03-23T09:06:47.169Z,11484
2017-03-23T09:07:59.700Z,11160
2017-03-23T09:09:11.937Z,11380
2017-03-23T09:10:24.481Z,11788
2017-03-23T09:11:37.030Z,12156
2017-03-23T09:12:49.554Z,12264
2017-03-23T09:14:01.471Z,12392
2017-03-23T09:15:14.000Z,12724
2017-03-23T09:16:25.943Z,13148
2017-03-23T09:17:38.164Z,13548
2017-03-23T09:18:50.660Z,13792
2017-03-23T09:20:03.183Z,14152
2017-03-23T09:21:15.427Z,14672
2017-03-23T09:22:27.653Z,15236
2017-03-23T09:23:39.889Z,15604
2017-03-23T09:24:52.417Z,15692
2017-03-23T09:26:04.668Z,16268
2017-03-23T09:27:16.610Z,17220
2017-03-23T09:28:29.148Z,19072
2017-03-23T09:29:41.665Z,20992
2017-03-23T09:30:54.219Z,22176
2017-03-23T09:32:06.740Z,21824
2017-03-23T09:33:19.267Z,20544
2017-03-23T09:34:31.210Z,19872
2017-03-23T09:35:43.778Z,19968
2017-03-23T09:36:56.299Z,19936
2017-03-23T09:38:08.221Z,19328
2017-03-23T09:39:20.744Z,18304
2017-03-23T09:40:33.356Z,17232
2017-03-23T09:41:45.578Z,16124
2017-03-23T09:42:58.107Z,15668
2017-03-23T09:44:10.353Z,15936
2017-03-23T09:45:22.295Z,16880
2017-03-23T09:46:34.809Z,17984
2017-03-23T09:47:47.329Z,18432
2017-03-23T09:48:59.879Z,19296
2017-03-23T09:50:12.132Z,19328
2017-03-23T09:51:24.075Z,19040
2017-03-23T09:52:36.599Z,18560
2017-03-23T09:53:49.144Z,17888
2017-03-23T09:55:01.093Z,17236
2017-03-23T09:56:13.029Z,17080
2017-03-23T09:57:25.571Z,16676
2017-03-23T09:58:38.100Z,16228
2017-03-23T09:59:50.624Z,15852
2017-03-23T10:01:02.870Z,15320
2017-03-23T10:02:15.416Z,14464
2017-03-23T10:03:27.966Z,14524
2017-03-23T10:04:40.504Z,14552
2017-03-23T10:05:53.028Z,14620
2017-03-23T10:07:05.572Z,15652
2017-03-23T10:08:17.801Z,17232
2017-03-23T10:09:30.317Z,18752
2017-03-23T10:10:42.864Z,19936
2017-03-23T10:11:55.086Z,20480
2017-03-23T10:13:07.029Z,20832
2017-03-23T10:14:19.575Z,21056
2017-03-23T10:15:31.800Z,20000
2017-03-23T10:16:44.339Z,18560
2017-03-23T10:17:56.580Z,17004
2017-03-23T10:19:09.105Z,15660
2017-03-23T10:20:21.631Z,14176
2017-03-23T10:21:33.546Z,13136
2017-03-23T10:22:45.770Z,12544
2017-03-23T10:23:58.295Z,12036
2017-03-23T10:25:10.503Z,11472
2017-03-23T10:26:22.781Z,11452
2017-03-23T10:27:35.002Z,11360
2017-03-23T10:28:47.208Z,10648
2017-03-23T10:29:59.424Z,9844
2017-03-23T10:31:11.967Z,9024
2017-03-23T10:32:24.213Z,8088
2017-03-23T10:33:36.762Z,8348
2017-03-23T10:34:49.279Z,8520
2017-03-23T10:36:01.524Z,8464
2017-03-23T10:37:14.037Z,8424
2017-03-23T10:38:26.244Z,8044
2017-03-23T10:39:38.495Z,7608
2017-03-23T10:40:50.732Z,7452
2017-03-23T10:42:02.952Z,7472
2017-03-23T10:43:14.578Z,7716
2017-03-23T10:44:27.124Z,7344
2017-03-23T10:45:39.651Z,6828
2017-03-23T10:46:52.179Z,6716
2017-03-23T10:48:04.401Z,7132
2017-03-23T10:49:16.934Z,7312
2017-03-23T10:50:29.175Z,7064
2017-03-23T10:51:41.099Z,6928
2017-03-23T10:52:53.336Z,6860
2017-03-23T10:54:05.872Z,6940
2017-03-23T10:55:17.511Z,7152
2017-03-23T10:56:30.074Z,7340
2017-03-23T10:57:42.301Z,7404
2017-03-23T10:58:54.229Z,7448
2017-03-23T11:00:06.775Z,7716
2017-03-23T11:01:19.315Z,8460
2017-03-23T11:02:31.859Z,9044
2017-03-23T11:03:44.107Z,9480
2017-03-23T11:04:56.354Z,9804
2017-03-23T11:06:08.617Z,9836
2017-03-23T11:07:21.171Z,9548
2017-03-23T11:08:33.432Z,9792
2017-03-23T11:09:45.984Z,10008
2017-03-23T11:10:58.209Z,10084
2017-03-23T11:12:10.155Z,10124
2017-03-23T11:13:22.393Z,10048
2017-03-23T11:14:34.343Z,9796
2017-03-23T11:15:46.538Z,9484
2017-03-23T11:16:58.755Z,9004
2017-03-23T11:18:11.301Z,8660
2017-03-23T11:19:23.229Z,8732
2017-03-23T11:20:35.147Z,9084
2017-03-23T11:21:47.369Z,9700
2017-03-23T11:22:59.889Z,10412
2017-03-23T11:24:12.134Z,11192
2017-03-23T11:25:24.687Z,12156
2017-03-23T11:26:37.204Z,13120
2017-03-23T11:27:49.723Z,13736
2017-03-23T11:29:02.264Z,14024
2017-03-23T11:30:14.489Z,14096
2017-03-23T11:31:26.763Z,13860
2017-03-23T11:32:39.306Z,13276
2017-03-23T11:33:51.227Z,12360
2017-03-23T11:35:03.457Z,11916
2017-03-23T11:36:15.397Z,12160
2017-03-23T11:37:27.959Z,12576
2017-03-23T11:38:40.510Z,12764
2017-03-23T11:39:52.735Z,12740
2017-03-23T11:41:05.278Z,12564
2017-03-23T11:42:17.803Z,12332
2017-03-23T11:43:30.037Z,12120
2017-03-23T11:44:42.287Z,11828
2017-03-23T11:45:54.817Z,11476
2017-03-23T11:47:07.037Z,11168
2017-03-23T11:48:19.278Z,10944
2017-03-23T11:49:31.807Z,10564
2017-03-23T11:50:44.048Z,10012
2017-03-23T11:51:56.571Z,9824
2017-03-23T11:53:08.529Z,9840
2017-03-23T11:54:20.461Z,9756
2017-03-23T11:55:33.005Z,9384
2017-03-23T11:56:45.553Z,8884
2017-03-23T11:57:58.095Z,8356
2017-03-23T11:59:10.649Z,8188
2017-03-23T12:00:22.589Z,8604
2017-03-23T12:01:35.108Z,9184
2017-03-23T12:02:47.349Z,9684
2017-03-23T12:03:59.896Z,9816
2017-03-23T12:05:12.417Z,9768
2017-03-23T12:06:24.985Z,9504
2017-03-23T12:07:36.913Z,9180
2017-03-23T12:08:49.430Z,9116
2017-03-23T12:10:01.948Z,8880
2017-03-23T12:11:14.492Z,8468
2017-03-23T12:12:26.421Z,8280
2017-03-23T12:13:38.963Z,8476
2017-03-23T12:14:51.522Z,8720
2017-03-23T12:16:04.060Z,9100
2017-03-23T12:17:15.659Z,9640
2017-03-23T12:18:28.194Z,10304
2017-03-23T12:19:40.727Z,10808
2017-03-23T12:20:52.643Z,11208
2017-03-23T12:22:04.568Z,11604
2017-03-23T12:23:16.802Z,11568
2017-03-23T12:24:29.011Z,11588
2017-03-23T12:25:41.510Z,11944
2017-03-23T12:26:53.723Z,12460
2017-03-23T12:28:06.271Z,12780
2017-03-23T12:29:17.920Z,12956
2017-03-23T12:30:29.564Z,13052
2017-03-23T12:31:41.799Z,13136
2017-03-23T12:32:54.044Z,12984
2017-03-23T12:34:06.276Z,12988
2017-03-23T12:35:17.599Z,13324
2017-03-23T12:36:30.116Z,13748
2017-03-23T12:37:42.385Z,14176
2017-03-23T12:38:54.603Z,14708
2017-03-23T12:40:07.131Z,15424
2017-03-23T12:41:19.677Z,16732
2017-03-23T12:42:32.220Z,17696
2017-03-23T12:43:44.447Z,17728
2017-03-23T12:44:56.991Z,17212
2017-03-23T12:46:09.536Z,16816
2017-03-23T12:47:22.095Z,16836
2017-03-23T12:48:34.328Z,18464
2017-03-23T12:49:46.862Z,19232
2017-03-23T12:50:59.068Z,19840
2017-03-23T12:52:11.642Z,20192
2017-03-23T12:53:23.283Z,20128
2017-03-23T12:54:35.508Z,19680
2017-03-23T12:55:48.027Z,18752
2017-03-23T12:57:00.266Z,20000
2017-03-23T12:58:12.218Z,21664
2017-03-23T12:59:24.761Z,21824
2017-03-23T13:00:37.004Z,21792
2017-03-23T13:01:49.553Z,21632
2017-03-23T13:03:01.497Z,21376
2017-03-23T13:04:13.794Z,20512
2017-03-23T13:05:26.326Z,21088
2017-03-23T13:06:38.238Z,20768
2017-03-23T13:07:50.726Z,20160
2017-03-23T13:09:02.980Z,19936
2017-03-23T13:10:15.478Z,19360
2017-03-23T13:11:28.029Z,18368
2017-03-23T13:12:40.573Z,18080
2017-03-23T13:13:52.766Z,17484
2017-03-23T13:15:05.028Z,16856
2017-03-23T13:16:17.264Z,16100
2017-03-23T13:17:29.192Z,15372
2017-03-23T13:18:41.118Z,14188
2017-03-23T13:19:53.660Z,14844
2017-03-23T13:21:06.214Z,14916
2017-03-23T13:22:18.737Z,15028
2017-03-23T13:23:30.982Z,14500
2017-03-23T13:24:43.194Z,15540
2017-03-23T13:25:55.752Z,15372
2017-03-23T13:27:07.998Z,14292
2017-03-23T13:28:19.943Z,14208
2017-03-23T13:29:31.860Z,14716
2017-03-23T13:30:44.409Z,14912
2017-03-23T13:31:56.947Z,15236
2017-03-23T13:33:09.174Z,16024
2017-03-23T13:34:21.701Z,16924
2017-03-23T13:35:34.244Z,17600
2017-03-23T13:36:46.789Z,17760
2017-03-23T13:37:58.432Z,17952
2017-03-23T13:39:10.648Z,17984
2017-03-23T13:40:22.899Z,17412
2017-03-23T13:41:35.425Z,16828
2017-03-23T13:42:47.946Z,15668
2017-03-23T13:43:59.865Z,17600
2017-03-23T13:45:11.807Z,18368
2017-03-23T13:46:24.333Z,17228
2017-03-23T13:47:36.867Z,16644
2017-03-23T13:48:49.142Z,17092
2017-03-23T13:50:01.667Z,17176
2017-03-23T13:51:14.187Z,16468
2017-03-23T13:52:26.718Z,15808
2017-03-23T13:53:39.275Z,15252
2017-03-23T13:54:51.499Z,13692
2017-03-23T13:56:03.723Z,12948
2017-03-23T13:57:16.266Z,13500
2017-03-23T13:58:28.487Z,14656
2017-03-23T13:59:41.005Z,14352
2017-03-23T14:00:53.210Z,13528
2017-03-23T14:02:05.154Z,12392
2017-03-23T14:03:17.671Z,11224
2017-03-23T14:04:30.209Z,10328
2017-03-23T14:05:42.739Z,10460
2017-03-23T14:06:54.405Z,10192
2017-03-23T14:08:06.907Z,9856
2017-03-23T14:09:19.425Z,9176
2017-03-23T14:10:31.647Z,10260
2017-03-23T14:11:43.889Z,10472
2017-03-23T14:12:56.415Z,8556
2017-03-23T14:14:08.912Z,7332
2017-03-23T14:15:20.857Z,6552
2017-03-23T14:16:33.379Z,6680
2017-03-23T14:17:45.897Z,6056
2017-03-23T14:18:57.810Z,5640
2017-03-23T14:20:10.039Z,5792
2017-03-23T14:21:21.961Z,5956
2017-03-23T14:22:33.873Z,6316
2017-03-23T14:23:46.111Z,6764
2017-03-23T14:24:58.651Z,6696
2017-03-23T14:26:11.197Z,6040
2017-03-23T14:27:23.738Z,5388
2017-03-23T14:28:36.028Z,4780
2017-03-23T14:29:48.584Z,4344
2017-03-23T14:31:01.131Z,4028
2017-03-23T14:32:13.377Z,3856
2017-03-23T14:33:25.597Z,3544
2017-03-23T14:34:37.818Z,3164
2017-03-23T14:35:50.418Z,3148
2017-03-23T14:37:02.934Z,3184
2017-03-23T14:38:15.173Z,3184
2017-03-23T14:39:27.127Z,3344
2017-03-23T14:40:39.075Z,3356
2017-03-23T14:41:51.295Z,3376
2017-03-23T14:43:03.811Z,3292
2017-03-23T14:44:16.329Z,3020
2017-03-23T14:45:28.875Z,2680
2017-03-23T14:46:41.485Z,2460
2017-03-23T14:47:54.022Z,2424
2017-03-23T14:49:06.560Z,2468
2017-03-23T14:50:18.766Z,2504
2017-03-23T14:51:31.285Z,2512
2017-03-23T14:52:43.825Z,2532
2017-03-23T14:53:56.065Z,2600
2017-03-23T14:55:08.002Z,2596
2017-03-23T14:56:20.584Z,2400
2017-03-23T14:57:33.143Z,2192
2017-03-23T14:58:45.684Z,1972
2017-03-23T14:59:57.910Z,1776
2017-03-23T15:01:10.427Z,1664
2017-03-23T15:02:22.327Z,1588
2017-03-23T15:03:34.274Z,1588
2017-03-23T15:04:46.214Z,1504
2017-03-23T15:05:58.138Z,1436
2017-03-23T15:07:10.680Z,1452
2017-03-23T15:08:23.217Z,1528
2017-03-23T15:09:34.849Z,1668
2017-03-23T15:10:46.794Z,1752
2017-03-23T15:11:58.771Z,1772
2017-03-23T15:13:11.041Z,1724
2017-03-23T15:14:23.273Z,1780
2017-03-23T15:15:35.793Z,1892
2017-03-23T15:16:48.302Z,1988
2017-03-23T15:18:00.243Z,2076
2017-03-23T15:19:12.467Z,1940
2017-03-23T15:20:24.678Z,1836
2017-03-23T15:21:37.211Z,1884
2017-03-23T15:22:49.730Z,1992
2017-03-23T15:24:02.239Z,2072
2017-03-23T15:25:14.472Z,2060
2017-03-23T15:26:26.707Z,1940
2017-03-23T15:27:38.611Z,1828
2017-03-23T15:28:51.158Z,1736
2017-03-23T15:30:03.702Z,1676
2017-03-23T15:31:16.227Z,1632
2017-03-23T15:32:28.447Z,1644
2017-03-23T15:33:41.019Z,1676
2017-03-23T15:34:53.562Z,1696
2017-03-23T15:36:06.099Z,1712
2017-03-23T15:37:18.646Z,1732
2017-03-23T15:38:30.873Z,1756
2017-03-23T15:39:43.387Z,1768
2017-03-23T15:40:55.896Z,1784
2017-03-23T15:42:08.419Z,1804
2017-03-23T15:43:20.639Z,1876
2017-03-23T15:44:32.845Z,1976
2017-03-23T15:45:44.792Z,2000
2017-03-23T15:46:57.320Z,1956
2017-03-23T15:48:09.544Z,1932
2017-03-23T15:49:21.804Z,1920
2017-03-23T15:50:33.741Z,1868
2017-03-23T15:51:45.423Z,1740
2017-03-23T15:52:57.654Z,1624
2017-03-23T15:54:10.189Z,1588
2017-03-23T15:55:22.716Z,1608
2017-03-23T15:56:35.212Z,1632
2017-03-23T15:57:47.480Z,1716
2017-03-23T15:58:59.982Z,1752
2017-03-23T16:00:12.526Z,1748
2017-03-23T16:01:25.064Z,1716
2017-03-23T16:02:37.283Z,1688
2017-03-23T16:03:49.255Z,1704
2017-03-23T16:05:01.487Z,1748
2017-03-23T16:06:13.706Z,1776
2017-03-23T16:07:26.228Z,1744
2017-03-23T16:08:38.154Z,1684
2017-03-23T16:09:50.070Z,1628
2017-03-23T16:11:01.990Z,1604
2017-03-23T16:12:14.201Z,1632
2017-03-23T16:13:26.107Z,1688
2017-03-23T16:14:38.331Z,1748
2017-03-23T16:15:50.539Z,1724
2017-03-23T16:17:03.035Z,1528
2017-03-23T16:18:15.542Z,1500
2017-03-23T16:19:27.778Z,1352
2017-03-23T16:20:39.706Z,1284
2017-03-23T16:21:51.904Z,1200
2017-03-23T16:23:04.147Z,1132
2017-03-23T16:24:16.345Z,1080